createdAt,value
2022-08-21T00:00:54.740Z,8.20
2022-08-21T00:01:54.782Z,8.00
2022-08-21T00:02:54.769Z,8.40
2022-08-21T00:03:54.719Z,9.20
2022-08-21T00:04:57.708Z,7.50
2022-08-21T00:05:54.737Z,8.20
2022-08-21T00:06:54.681Z,8.70
2022-08-21T00:07:54.690Z,8.10
2022-08-21T00:08:54.669Z,8.80
2022-08-21T00:09:54.652Z,8.10
2022-08-21T00:10:54.660Z,8.10
2022-08-21T00:11:54.629Z,7.50
2022-08-21T00:12:54.644Z,8.10
2022-08-21T00:13:54.636Z,8.20
2022-08-21T00:14:56.973Z,7.90
2022-08-21T00:15:54.602Z,7.70
2022-08-21T00:16:57.276Z,7.70
2022-08-21T00:17:55.586Z,8.00
2022-08-21T00:18:54.579Z,8.50
2022-08-21T00:19:54.576Z,7.80
2022-08-21T00:20:54.544Z,8.80
2022-08-21T00:21:54.537Z,8.30
2022-08-21T00:22:54.597Z,8.70
2022-08-21T00:23:54.508Z,8.70
2022-08-21T00:24:54.518Z,8.20
2022-08-21T00:25:54.498Z,8.20
2022-08-21T00:26:54.494Z,8.20
2022-08-21T00:27:54.477Z,8.50
2022-08-21T00:28:54.484Z,8.40
2022-08-21T00:29:54.454Z,8.70
2022-08-21T00:30:54.446Z,7.50
2022-08-21T00:31:54.460Z,8.40
2022-08-21T00:32:54.475Z,8.50
2022-08-21T00:33:59.351Z,7.70
2022-08-21T00:34:55.398Z,8.00
2022-08-21T00:35:54.384Z,8.30
2022-08-21T00:36:54.403Z,9.20
2022-08-21T00:37:54.373Z,9.30
2022-08-21T00:38:54.365Z,8.10
2022-08-21T00:39:54.511Z,7.50
2022-08-21T00:40:54.336Z,8.20
2022-08-21T00:41:54.341Z,7.90
2022-08-21T00:42:54.347Z,7.10
2022-08-21T00:43:54.318Z,7.60
2022-08-21T00:44:54.306Z,7.40
2022-08-21T00:45:54.301Z,7.40
2022-08-21T00:46:54.285Z,7.20
2022-08-21T00:47:54.297Z,7.50
2022-08-21T00:48:57.234Z,7.60
2022-08-21T00:49:54.257Z,8.00
2022-08-21T00:50:54.257Z,7.60
2022-08-21T00:51:54.226Z,8.00
2022-08-21T00:52:54.260Z,7.80
2022-08-21T00:53:54.227Z,7.90
2022-08-21T00:54:54.199Z,6.80
2022-08-21T00:55:54.195Z,7.30
2022-08-21T00:56:54.195Z,7.40
2022-08-21T00:57:54.169Z,8.70
2022-08-21T00:58:54.900Z,7.40
2022-08-21T00:59:54.163Z,7.60
2022-08-21T01:00:54.219Z,6.80
2022-08-21T01:02:26.031Z,7.40
2022-08-21T01:02:54.139Z,7.40
2022-08-21T01:03:54.110Z,6.80
2022-08-21T01:04:54.122Z,7.80
2022-08-21T01:05:54.120Z,7.90
2022-08-21T01:06:54.170Z,7.10
2022-08-21T01:07:54.083Z,7.40
2022-08-21T01:08:54.065Z,7.40
2022-08-21T01:09:54.070Z,7.00
2022-08-21T01:10:54.708Z,7.70
2022-08-21T01:11:54.029Z,7.00
2022-08-21T01:12:54.138Z,7.10
2022-08-21T01:13:54.026Z,7.10
2022-08-21T01:14:54.005Z,7.10
2022-08-21T01:15:54.007Z,6.70
2022-08-21T01:16:54.182Z,7.00
2022-08-21T01:17:53.974Z,6.80
2022-08-21T01:18:53.965Z,7.60
2022-08-21T01:19:53.951Z,7.40
2022-08-21T01:20:53.963Z,7.50
2022-08-21T01:21:53.960Z,7.80
2022-08-21T01:22:53.920Z,7.80
2022-08-21T01:23:53.922Z,6.90
2022-08-21T01:24:54.892Z,7.10
2022-08-21T01:25:53.901Z,8.60
2022-08-21T01:26:53.883Z,8.00
2022-08-21T01:27:53.889Z,7.80
2022-08-21T01:28:53.898Z,7.40
2022-08-21T01:29:53.878Z,7.90
2022-08-21T01:30:53.847Z,9.70
2022-08-21T01:31:53.829Z,9.00
2022-08-21T01:32:53.821Z,8.20
2022-08-21T01:33:53.853Z,8.10
2022-08-21T01:34:53.789Z,7.10
2022-08-21T01:35:53.799Z,8.40
2022-08-21T01:36:53.805Z,7.80
2022-08-21T01:37:53.767Z,8.30
2022-08-21T01:38:53.754Z,7.70
2022-08-21T01:39:53.757Z,7.80
2022-08-21T01:40:53.728Z,7.90
2022-08-21T01:41:53.729Z,7.60
2022-08-21T01:42:53.733Z,8.10
2022-08-21T01:43:53.705Z,8.50
2022-08-21T01:44:54.757Z,7.60
2022-08-21T01:45:53.676Z,7.70
2022-08-21T01:46:53.676Z,10.40
2022-08-21T01:47:53.685Z,9.10
2022-08-21T01:48:53.645Z,7.90
2022-08-21T01:49:53.644Z,8.60
2022-08-21T01:50:56.741Z,7.80
2022-08-21T01:51:53.631Z,8.10
2022-08-21T01:52:53.634Z,8.20
2022-08-21T01:53:53.620Z,8.50
2022-08-21T01:54:55.508Z,8.70
2022-08-21T01:55:53.584Z,8.30
2022-08-21T01:56:53.560Z,8.00
2022-08-21T01:57:53.563Z,7.20
2022-08-21T01:58:53.571Z,8.70
2022-08-21T01:59:53.544Z,7.70
2022-08-21T02:00:53.556Z,7.50
2022-08-21T02:01:53.546Z,8.00
2022-08-21T02:02:53.514Z,10.20
2022-08-21T02:03:53.506Z,8.60
2022-08-21T02:04:53.501Z,9.40
2022-08-21T02:05:53.481Z,9.80
2022-08-21T02:06:53.587Z,7.60
2022-08-21T02:07:53.459Z,7.90
2022-08-21T02:08:53.440Z,7.90
2022-08-21T02:09:53.433Z,7.50
2022-08-21T02:10:53.429Z,7.40
2022-08-21T02:11:53.422Z,8.00
2022-08-21T02:12:53.428Z,8.50
2022-08-21T02:13:53.400Z,8.00
2022-08-21T02:14:53.413Z,8.50
2022-08-21T02:15:53.383Z,7.70
2022-08-21T02:16:53.368Z,8.30
2022-08-21T02:17:54.371Z,8.10
2022-08-21T02:18:53.345Z,7.70
2022-08-21T02:19:53.369Z,8.40
2022-08-21T02:20:55.871Z,9.00
2022-08-21T02:21:53.320Z,10.20
2022-08-21T02:22:53.303Z,8.90
2022-08-21T02:23:53.313Z,10.20
2022-08-21T02:24:55.169Z,8.20
2022-08-21T02:25:53.283Z,10.70
2022-08-21T02:26:53.279Z,9.60
2022-08-21T02:27:53.261Z,8.20
2022-08-21T02:28:53.263Z,8.50
2022-08-21T02:29:53.256Z,9.50
2022-08-21T02:30:53.227Z,9.40
2022-08-21T02:31:53.215Z,8.40
2022-08-21T02:32:53.217Z,7.90
2022-08-21T02:33:53.193Z,8.20
2022-08-21T02:34:53.221Z,8.80
2022-08-21T02:35:53.176Z,8.50
2022-08-21T02:36:59.646Z,8.20
2022-08-21T02:37:54.174Z,8.80
2022-08-21T02:38:53.154Z,8.40
2022-08-21T02:39:53.186Z,8.90
2022-08-21T02:40:53.127Z,9.70
2022-08-21T02:41:53.134Z,9.20
2022-08-21T02:42:53.113Z,8.00
2022-08-21T02:43:53.093Z,8.90
2022-08-21T02:44:53.103Z,9.00
2022-08-21T02:45:53.083Z,13.20
2022-08-21T02:46:53.123Z,10.70
2022-08-21T02:47:53.068Z,9.40
2022-08-21T02:48:53.048Z,9.20
2022-08-21T02:49:53.034Z,9.40
2022-08-21T02:50:53.022Z,9.00
2022-08-21T02:51:53.012Z,9.00
2022-08-21T02:52:54.930Z,10.20
2022-08-21T02:53:53.002Z,10.90
2022-08-21T02:54:52.982Z,9.30
2022-08-21T02:55:52.974Z,9.20
2022-08-21T02:56:53.118Z,9.40
2022-08-21T02:57:52.979Z,9.10
2022-08-21T02:58:52.948Z,10.80
2022-08-21T02:59:52.932Z,10.80
2022-08-21T03:00:52.924Z,10.00
2022-08-21T03:01:52.938Z,10.30
2022-08-21T03:02:52.949Z,9.60
2022-08-21T03:03:52.903Z,10.10
2022-08-21T03:04:52.883Z,10.50
2022-08-21T03:05:52.880Z,9.30
2022-08-21T03:06:53.063Z,9.40
2022-08-21T03:07:52.865Z,9.50
2022-08-21T03:08:52.871Z,9.90
2022-08-21T03:09:55.281Z,9.90
2022-08-21T03:10:52.828Z,9.10
2022-08-21T03:11:52.813Z,10.20
2022-08-21T03:12:52.835Z,12.50
2022-08-21T03:13:52.801Z,10.00
2022-08-21T03:14:52.783Z,10.40
2022-08-21T03:15:52.781Z,9.80
2022-08-21T03:16:52.763Z,9.90
2022-08-21T03:17:52.759Z,10.40
2022-08-21T03:18:52.746Z,9.20
2022-08-21T03:19:52.732Z,8.30
2022-08-21T03:20:52.715Z,9.00
2022-08-21T03:21:52.729Z,8.30
2022-08-21T03:22:53.166Z,9.20
2022-08-21T03:23:52.692Z,9.00
2022-08-21T03:24:52.683Z,9.30
2022-08-21T03:25:52.698Z,9.00
2022-08-21T03:26:52.658Z,9.90
2022-08-21T03:27:55.923Z,11.10
2022-08-21T03:28:54.676Z,11.10
2022-08-21T03:29:52.664Z,9.90
2022-08-21T03:30:52.616Z,9.30
2022-08-21T03:31:52.609Z,9.10
2022-08-21T03:32:52.602Z,8.90
2022-08-21T03:33:52.677Z,9.30
2022-08-21T03:34:52.582Z,10.20
2022-08-21T03:35:52.576Z,9.80
2022-08-21T03:36:52.559Z,10.40
2022-08-21T03:37:52.548Z,14.10
2022-08-21T03:38:52.551Z,11.30
2022-08-21T03:39:52.577Z,10.00
2022-08-21T03:40:52.528Z,12.00
2022-08-21T03:41:52.528Z,12.80
2022-08-21T03:42:52.506Z,10.30
2022-08-21T03:43:52.492Z,11.40
2022-08-21T03:44:52.502Z,11.30
2022-08-21T03:45:52.732Z,10.70
2022-08-21T03:46:52.471Z,11.30
2022-08-21T03:47:52.459Z,10.10
2022-08-21T03:48:52.451Z,10.50
2022-08-21T03:49:52.453Z,10.80
2022-08-21T03:50:52.488Z,9.90
2022-08-21T03:51:59.406Z,10.70
2022-08-21T03:52:53.409Z,11.10
2022-08-21T03:53:52.404Z,14.00
2022-08-21T03:54:52.386Z,17.40
2022-08-21T03:55:52.407Z,12.00
2022-08-21T03:56:52.369Z,17.70
2022-08-21T03:57:52.363Z,14.90
2022-08-21T03:58:52.342Z,21.90
2022-08-21T03:59:52.342Z,18.90
2022-08-21T04:00:52.336Z,32.00
2022-08-21T04:01:52.353Z,39.70
2022-08-21T04:02:52.334Z,35.30
2022-08-21T04:03:52.310Z,49.50
2022-08-21T04:04:52.277Z,25.40
2022-08-21T04:05:52.273Z,26.30
2022-08-21T04:06:52.266Z,68.10
2022-08-21T04:07:52.253Z,21.50
2022-08-21T04:08:52.309Z,28.60
2022-08-21T04:09:52.231Z,25.60
2022-08-21T04:10:52.227Z,34.10
2022-08-21T04:11:52.209Z,24.00
2022-08-21T04:12:52.216Z,21.90
2022-08-21T04:13:52.202Z,40.60
2022-08-21T04:14:52.201Z,22.50
2022-08-21T04:15:52.272Z,30.30
2022-08-21T04:16:52.167Z,46.30
2022-08-21T04:17:52.159Z,36.90
2022-08-21T04:18:52.150Z,45.00
2022-08-21T04:19:54.007Z,72.00
2022-08-21T04:20:53.140Z,71.10
2022-08-21T04:21:52.607Z,68.40
2022-08-21T04:22:52.135Z,54.90
2022-08-21T04:23:53.097Z,68.80
2022-08-21T04:24:52.144Z,82.50
2022-08-21T04:25:52.076Z,57.30
2022-08-21T04:26:52.064Z,62.10
2022-08-21T04:27:52.103Z,71.80
2022-08-21T04:28:52.046Z,45.90
2022-08-21T04:29:52.036Z,47.40
2022-08-21T04:30:52.048Z,45.90
2022-08-21T04:31:52.011Z,46.80
2022-08-21T04:32:52.040Z,78.80
2022-08-21T04:33:51.991Z,58.50
2022-08-21T04:34:51.981Z,101.20
2022-08-21T04:35:51.987Z,140.30
2022-08-21T04:36:51.965Z,127.10
2022-08-21T04:37:51.973Z,87.30
2022-08-21T04:38:51.939Z,73.60
2022-08-21T04:39:53.650Z,63.20
2022-08-21T04:40:52.922Z,66.00
2022-08-21T04:41:51.917Z,40.20
2022-08-21T04:42:51.957Z,54.60
2022-08-21T04:43:51.912Z,58.50
2022-08-21T04:44:51.896Z,38.10
2022-08-21T04:45:51.869Z,64.50
2022-08-21T04:46:51.866Z,89.00
2022-08-21T04:47:52.134Z,59.70
2022-08-21T04:48:51.868Z,77.10
2022-08-21T04:49:51.837Z,55.80
2022-08-21T04:50:51.826Z,79.80
2022-08-21T04:51:51.812Z,53.80
2022-08-21T04:52:51.818Z,58.60
2022-08-21T04:53:53.059Z,77.50
2022-08-21T04:54:54.820Z,96.60
2022-08-21T04:55:52.785Z,71.70
2022-08-21T04:56:51.765Z,75.40
2022-08-21T04:57:51.757Z,79.20
2022-08-21T04:58:51.747Z,58.10
2022-08-21T04:59:51.774Z,72.70
2022-08-21T05:00:51.728Z,60.70
2022-08-21T05:01:51.821Z,66.00
2022-08-21T05:02:51.762Z,111.90
2022-08-21T05:03:51.706Z,64.30
2022-08-21T05:04:51.690Z,69.00
2022-08-21T05:05:51.700Z,90.40
2022-08-21T05:06:51.671Z,85.80
2022-08-21T05:07:51.674Z,38.10
2022-08-21T05:08:51.667Z,42.70
2022-08-21T05:09:51.667Z,49.40
2022-08-21T05:10:51.633Z,60.70
2022-08-21T05:11:51.636Z,69.80
2022-08-21T05:12:51.631Z,70.50
2022-08-21T05:13:54.994Z,50.30
2022-08-21T05:14:52.596Z,54.90
2022-08-21T05:15:51.588Z,54.60
2022-08-21T05:16:51.592Z,57.20
2022-08-21T05:17:52.406Z,52.30
2022-08-21T05:18:51.550Z,43.20
2022-08-21T05:19:51.557Z,63.30
2022-08-21T05:20:51.528Z,69.90
2022-08-21T05:21:51.526Z,106.20
2022-08-21T05:22:51.551Z,57.70
2022-08-21T05:23:51.511Z,65.70
2022-08-21T05:24:51.516Z,118.00
2022-08-21T05:25:51.488Z,43.20
2022-08-21T05:26:51.476Z,48.30
2022-08-21T05:27:51.983Z,62.40
2022-08-21T05:28:51.458Z,77.20
2022-08-21T05:29:51.451Z,77.60
2022-08-21T05:30:51.446Z,33.50
2022-08-21T05:31:51.419Z,49.70
2022-08-21T05:32:51.463Z,63.00
2022-08-21T05:33:52.038Z,33.30
2022-08-21T05:34:51.390Z,76.10
2022-08-21T05:35:51.387Z,57.60
2022-08-21T05:36:51.404Z,48.50
2022-08-21T05:37:51.401Z,53.00
2022-08-21T05:38:51.351Z,63.40
2022-08-21T05:40:05.015Z,49.90
2022-08-21T05:40:52.443Z,63.90
2022-08-21T05:41:51.344Z,63.00
2022-08-21T05:42:56.260Z,86.00
2022-08-21T05:43:52.310Z,54.60
2022-08-21T05:44:51.288Z,57.10
2022-08-21T05:45:51.279Z,36.30
2022-08-21T05:46:51.296Z,64.10
2022-08-21T05:47:51.263Z,28.00
2022-08-21T05:48:51.253Z,46.00
2022-08-21T05:49:51.249Z,18.10
2022-08-21T05:50:51.233Z,19.80
2022-08-21T05:51:51.252Z,19.80
2022-08-21T05:52:51.297Z,10.30
2022-08-21T05:53:52.216Z,10.70
2022-08-21T05:54:51.197Z,29.60
2022-08-21T05:55:51.184Z,19.90
2022-08-21T05:56:51.181Z,14.10
2022-08-21T05:57:51.164Z,12.90
2022-08-21T05:58:51.166Z,19.40
2022-08-21T05:59:51.172Z,32.20
2022-08-21T06:00:51.144Z,54.20
2022-08-21T06:01:51.165Z,35.90
2022-08-21T06:02:51.155Z,24.30
2022-08-21T06:03:51.120Z,34.70
2022-08-21T06:04:51.102Z,57.20
2022-08-21T06:05:51.098Z,90.20
2022-08-21T06:06:51.075Z,30.40
2022-08-21T06:07:51.063Z,82.70
2022-08-21T06:08:51.042Z,77.80
2022-08-21T06:09:51.074Z,96.20
2022-08-21T06:10:51.021Z,52.60
2022-08-21T06:11:51.016Z,31.50
2022-08-21T06:12:51.010Z,33.30
2022-08-21T06:13:50.999Z,32.00
2022-08-21T06:14:51.010Z,60.40
2022-08-21T06:15:50.977Z,82.30
2022-08-21T06:16:51.006Z,131.40
2022-08-21T06:17:50.971Z,61.50
2022-08-21T06:18:50.950Z,19.40
2022-08-21T06:19:50.941Z,67.50
2022-08-21T06:20:50.926Z,34.10
2022-08-21T06:21:50.951Z,47.10
2022-08-21T06:22:50.919Z,56.60
2022-08-21T06:23:50.928Z,46.70
2022-08-21T06:24:50.893Z,44.40
2022-08-21T06:25:50.878Z,58.70
2022-08-21T06:26:50.873Z,37.30
2022-08-21T06:27:50.858Z,67.30
2022-08-21T06:28:50.872Z,43.10
2022-08-21T06:29:50.837Z,33.80
2022-08-21T06:30:50.836Z,104.40
2022-08-21T06:31:50.827Z,85.50
2022-08-21T06:32:50.811Z,43.00
2022-08-21T06:33:50.824Z,26.20
2022-08-21T06:34:50.793Z,28.20
2022-08-21T06:35:50.789Z,41.50
2022-08-21T06:36:50.772Z,48.90
2022-08-21T06:37:50.795Z,87.60
2022-08-21T06:38:51.641Z,30.70
2022-08-21T06:39:50.813Z,22.90
2022-08-21T06:40:50.759Z,13.20
2022-08-21T06:41:50.714Z,35.10
2022-08-21T06:42:50.705Z,29.10
2022-08-21T06:43:50.708Z,18.20
2022-08-21T06:44:50.690Z,13.30
2022-08-21T06:45:50.709Z,17.60
2022-08-21T06:46:50.665Z,34.30
2022-08-21T06:47:50.651Z,117.80
2022-08-21T06:48:50.651Z,38.00
2022-08-21T06:49:50.626Z,31.80
2022-08-21T06:50:50.645Z,17.30
2022-08-21T06:51:50.633Z,14.00
2022-08-21T06:52:50.609Z,20.70
2022-08-21T06:53:50.611Z,15.20
2022-08-21T06:54:50.598Z,25.40
2022-08-21T06:55:50.589Z,26.70
2022-08-21T06:56:50.565Z,22.60
2022-08-21T06:57:52.661Z,21.70
2022-08-21T06:58:50.552Z,13.40
2022-08-21T06:59:50.543Z,18.30
2022-08-21T07:00:50.544Z,47.70
2022-08-21T07:02:04.767Z,32.80
2022-08-21T07:02:50.580Z,60.00
2022-08-21T07:03:50.554Z,50.80
2022-08-21T07:04:50.507Z,11.50
2022-08-21T07:05:50.480Z,20.30
2022-08-21T07:06:50.477Z,22.90
2022-08-21T07:07:50.491Z,10.90
2022-08-21T07:08:50.490Z,12.10
2022-08-21T07:09:50.461Z,9.40
2022-08-21T07:10:50.446Z,11.70
2022-08-21T07:11:50.417Z,9.80
2022-08-21T07:12:50.777Z,18.30
2022-08-21T07:13:50.406Z,51.60
2022-08-21T07:14:50.389Z,18.20
2022-08-21T07:15:50.382Z,55.50
2022-08-21T07:16:50.380Z,10.60
2022-08-21T07:17:50.350Z,10.80
2022-08-21T07:18:50.353Z,11.20
2022-08-21T07:19:50.365Z,10.80
2022-08-21T07:20:50.331Z,10.40
2022-08-21T07:21:50.316Z,10.80
2022-08-21T07:22:50.308Z,9.90
2022-08-21T07:23:50.296Z,10.20
2022-08-21T07:24:50.305Z,10.80
2022-08-21T07:25:50.278Z,10.50
2022-08-21T07:26:50.269Z,10.90
2022-08-21T07:27:50.260Z,10.20
2022-08-21T07:28:50.264Z,11.70
2022-08-21T07:29:50.243Z,11.60
2022-08-21T07:30:50.260Z,10.60
2022-08-21T07:31:50.224Z,12.10
2022-08-21T07:32:50.310Z,11.30
2022-08-21T07:33:50.189Z,11.80
2022-08-21T07:34:50.204Z,12.00
2022-08-21T07:35:50.174Z,11.40
2022-08-21T07:36:50.178Z,10.80
2022-08-21T07:37:50.176Z,11.10
2022-08-21T07:38:52.683Z,9.90
2022-08-21T07:39:50.226Z,10.70
2022-08-21T07:40:50.125Z,10.00
2022-08-21T07:41:50.118Z,10.10
2022-08-21T07:42:50.132Z,9.30
2022-08-21T07:43:52.804Z,9.30
2022-08-21T07:44:50.108Z,8.70
2022-08-21T07:45:50.080Z,9.10
2022-08-21T07:46:50.070Z,9.00
2022-08-21T07:47:53.100Z,8.80
2022-08-21T07:48:50.051Z,8.60
2022-08-21T07:49:50.744Z,8.10
2022-08-21T07:50:50.036Z,7.90
2022-08-21T07:51:50.017Z,8.00
2022-08-21T07:52:50.075Z,7.70
2022-08-21T07:53:50.009Z,7.90
2022-08-21T07:54:49.997Z,8.10
2022-08-21T07:55:49.977Z,7.50
2022-08-21T07:56:49.968Z,7.30
2022-08-21T07:57:49.976Z,7.00
2022-08-21T07:58:49.958Z,6.80
2022-08-21T07:59:49.960Z,6.80
2022-08-21T08:00:49.923Z,7.00
2022-08-21T08:01:49.931Z,7.50
2022-08-21T08:02:50.001Z,7.60
2022-08-21T08:03:49.902Z,5.90
2022-08-21T08:04:50.526Z,6.40
2022-08-21T08:05:50.891Z,7.00
2022-08-21T08:06:49.877Z,6.50
2022-08-21T08:07:49.855Z,6.40
2022-08-21T08:08:49.840Z,6.30
2022-08-21T08:09:49.840Z,6.20
2022-08-21T08:10:49.857Z,5.90
2022-08-21T08:11:49.837Z,6.10
2022-08-21T08:12:49.827Z,6.70
2022-08-21T08:13:49.842Z,5.90
2022-08-21T08:14:49.793Z,6.00
2022-08-21T08:15:49.806Z,6.40
2022-08-21T08:16:49.796Z,5.90
2022-08-21T08:17:49.799Z,5.90
2022-08-21T08:18:49.769Z,6.30
2022-08-21T08:19:49.773Z,5.80
2022-08-21T08:20:49.765Z,6.40
2022-08-21T08:21:49.756Z,5.50
2022-08-21T08:22:50.373Z,5.60
2022-08-21T08:23:49.766Z,5.50
2022-08-21T08:24:49.769Z,5.80
2022-08-21T08:25:49.703Z,5.30
2022-08-21T08:26:53.689Z,5.90
2022-08-21T08:27:49.811Z,5.20
2022-08-21T08:28:50.711Z,5.40
2022-08-21T08:29:49.742Z,5.30
2022-08-21T08:30:51.432Z,5.60
2022-08-21T08:31:49.674Z,5.20
2022-08-21T08:32:49.657Z,6.10
2022-08-21T08:33:49.648Z,4.60
2022-08-21T08:34:49.616Z,5.40
2022-08-21T08:35:49.600Z,5.30
2022-08-21T08:36:49.599Z,5.00
2022-08-21T08:37:52.423Z,5.80
2022-08-21T08:38:49.607Z,5.60
2022-08-21T08:39:49.615Z,4.70
2022-08-21T08:40:49.565Z,5.20
2022-08-21T08:41:49.550Z,4.40
2022-08-21T08:42:50.543Z,5.20
2022-08-21T08:43:49.527Z,4.80
2022-08-21T08:44:49.536Z,4.10
2022-08-21T08:45:49.523Z,4.70
2022-08-21T08:46:49.498Z,4.80
2022-08-21T08:47:49.495Z,5.70
2022-08-21T08:48:53.121Z,6.40
2022-08-21T08:49:50.490Z,5.20
2022-08-21T08:50:49.485Z,6.10
2022-08-21T08:51:53.012Z,7.20
2022-08-21T08:52:49.454Z,4.80
2022-08-21T08:53:49.440Z,5.40
2022-08-21T08:54:49.435Z,4.80
2022-08-21T08:55:49.477Z,5.50
2022-08-21T08:56:49.444Z,4.80
2022-08-21T08:57:50.129Z,5.20
2022-08-21T08:58:49.382Z,6.10
2022-08-21T08:59:49.402Z,6.50
2022-08-21T09:00:49.400Z,6.50
2022-08-21T09:01:49.435Z,4.20
2022-08-21T09:02:49.362Z,5.10
2022-08-21T09:03:49.347Z,6.80
2022-08-21T09:04:49.338Z,5.30
2022-08-21T09:05:49.323Z,5.20
2022-08-21T09:06:49.329Z,5.00
2022-08-21T09:07:49.332Z,5.40
2022-08-21T09:08:49.318Z,5.00
2022-08-21T09:09:49.322Z,6.00
2022-08-21T09:10:49.277Z,4.80
2022-08-21T09:11:49.275Z,4.90
2022-08-21T09:12:49.259Z,5.80
2022-08-21T09:13:49.271Z,5.80
2022-08-21T09:14:49.235Z,7.50
2022-08-21T09:15:49.255Z,6.80
2022-08-21T09:16:49.259Z,8.80
2022-08-21T09:17:49.283Z,5.80
2022-08-21T09:18:49.233Z,5.30
2022-08-21T09:19:49.214Z,5.90
2022-08-21T09:20:49.177Z,4.80
2022-08-21T09:21:50.267Z,4.90
2022-08-21T09:22:49.190Z,5.90
2022-08-21T09:23:49.169Z,5.80
2022-08-21T09:24:51.975Z,5.20
2022-08-21T09:25:50.329Z,5.20
2022-08-21T09:26:49.115Z,6.80
2022-08-21T09:27:49.162Z,5.00
2022-08-21T09:28:49.117Z,6.20
2022-08-21T09:29:49.129Z,5.10
2022-08-21T09:30:49.085Z,5.80
2022-08-21T09:31:49.074Z,5.80
2022-08-21T09:32:49.094Z,4.70
2022-08-21T09:33:49.072Z,4.90
2022-08-21T09:34:49.075Z,5.20
2022-08-21T09:35:49.051Z,4.30
2022-08-21T09:36:49.067Z,4.40
2022-08-21T09:37:49.052Z,6.30
2022-08-21T09:38:49.037Z,5.40
2022-08-21T09:39:49.700Z,5.50
2022-08-21T09:40:50.064Z,6.90
2022-08-21T09:41:49.003Z,5.50
2022-08-21T09:42:48.986Z,6.80
2022-08-21T09:43:48.982Z,8.10
2022-08-21T09:44:48.979Z,7.60
2022-08-21T09:45:48.983Z,6.30
2022-08-21T09:46:49.050Z,6.90
2022-08-21T09:47:48.928Z,8.00
2022-08-21T09:48:48.922Z,9.00
2022-08-21T09:49:48.934Z,7.80
2022-08-21T09:50:48.905Z,7.30
2022-08-21T09:51:48.911Z,6.20
2022-08-21T09:52:48.903Z,9.20
2022-08-21T09:53:48.904Z,5.80
2022-08-21T09:54:48.864Z,7.50
2022-08-21T09:55:48.867Z,5.10
2022-08-21T09:56:48.900Z,6.90
2022-08-21T09:57:50.435Z,5.80
2022-08-21T09:58:48.829Z,7.90
2022-08-21T09:59:48.819Z,4.90
2022-08-21T10:00:48.908Z,6.30
2022-08-21T10:01:48.826Z,7.00
2022-08-21T10:02:48.786Z,6.50
2022-08-21T10:03:48.773Z,6.60
2022-08-21T10:04:48.772Z,5.40
2022-08-21T10:05:48.758Z,5.90
2022-08-21T10:06:48.759Z,8.00
2022-08-21T10:07:48.764Z,6.60
2022-08-21T10:08:48.732Z,5.90
2022-08-21T10:09:48.721Z,8.10
2022-08-21T10:10:48.727Z,6.00
2022-08-21T10:11:49.702Z,7.00
2022-08-21T10:12:48.720Z,5.60
2022-08-21T10:13:48.692Z,6.30
2022-08-21T10:14:48.685Z,6.30
2022-08-21T10:15:48.677Z,6.90
2022-08-21T10:16:48.653Z,8.10
2022-08-21T10:17:48.663Z,9.10
2022-08-21T10:18:48.650Z,5.40
2022-08-21T10:19:48.659Z,4.70
2022-08-21T10:20:48.621Z,6.60
2022-08-21T10:21:49.158Z,6.00
2022-08-21T10:22:48.617Z,6.40
2022-08-21T10:23:48.590Z,6.30
2022-08-21T10:24:48.595Z,5.70
2022-08-21T10:25:56.915Z,8.00
2022-08-21T10:26:49.556Z,26.30
2022-08-21T10:27:48.546Z,81.80
2022-08-21T10:28:48.542Z,16.20
2022-08-21T10:29:48.549Z,13.50
2022-08-21T10:30:48.533Z,33.50
2022-08-21T10:31:48.522Z,28.60
2022-08-21T10:32:48.502Z,37.60
2022-08-21T10:33:48.497Z,6.40
2022-08-21T10:34:48.521Z,7.60
2022-08-21T10:35:48.474Z,8.10
2022-08-21T10:36:48.469Z,8.40
2022-08-21T10:37:48.483Z,6.90
2022-08-21T10:39:02.706Z,6.20
2022-08-21T10:39:50.464Z,5.10
2022-08-21T10:40:48.430Z,14.00
2022-08-21T10:41:48.445Z,8.20
2022-08-21T10:42:48.427Z,8.60
2022-08-21T10:43:48.405Z,5.10
2022-08-21T10:44:48.420Z,7.40
2022-08-21T10:45:48.376Z,5.60
2022-08-21T10:46:48.363Z,5.00
2022-08-21T10:47:49.366Z,6.60
2022-08-21T10:48:48.388Z,7.30
2022-08-21T10:49:48.366Z,7.80
2022-08-21T10:50:48.337Z,7.10
2022-08-21T10:51:48.333Z,8.00
2022-08-21T10:52:48.313Z,5.90
2022-08-21T10:53:48.303Z,5.80
2022-08-21T10:54:48.324Z,5.20
2022-08-21T10:55:48.288Z,6.40
2022-08-21T10:56:48.298Z,5.80
2022-08-21T10:57:48.266Z,6.50
2022-08-21T10:58:48.252Z,6.50
2022-08-21T10:59:48.253Z,6.60
2022-08-21T11:00:48.289Z,5.40
2022-08-21T11:01:48.244Z,5.30
2022-08-21T11:02:48.219Z,6.00
2022-08-21T11:03:48.243Z,6.40
2022-08-21T11:04:49.432Z,6.30
2022-08-21T11:05:50.788Z,6.40
2022-08-21T11:06:49.190Z,6.40
2022-08-21T11:07:48.170Z,4.90
2022-08-21T11:08:48.177Z,4.80
2022-08-21T11:09:48.144Z,6.90
2022-08-21T11:10:55.179Z,8.30
2022-08-21T11:11:59.048Z,5.40
2022-08-21T11:12:49.238Z,7.30
2022-08-21T11:13:48.126Z,5.50
2022-08-21T11:14:49.775Z,6.00
2022-08-21T11:15:48.112Z,4.80
2022-08-21T11:16:48.073Z,7.00
2022-08-21T11:17:48.072Z,6.30
2022-08-21T11:18:48.070Z,5.30
2022-08-21T11:19:48.051Z,4.90
2022-08-21T11:20:48.071Z,8.40
2022-08-21T11:21:48.038Z,4.20
2022-08-21T11:22:51.351Z,5.80
2022-08-21T11:23:50.011Z,7.00
2022-08-21T11:24:48.024Z,5.80
2022-08-21T11:25:47.999Z,5.90
2022-08-21T11:26:51.345Z,5.70
2022-08-21T11:27:48.084Z,6.70
2022-08-21T11:28:47.981Z,5.80
2022-08-21T11:29:47.972Z,6.70
2022-08-21T11:30:47.967Z,5.80
2022-08-21T11:31:47.956Z,5.20
2022-08-21T11:32:47.930Z,6.40
2022-08-21T11:33:47.937Z,7.20
2022-08-21T11:34:47.926Z,7.60
2022-08-21T11:35:47.902Z,7.70
2022-08-21T11:36:47.949Z,5.50
2022-08-21T11:37:48.967Z,6.80
2022-08-21T11:38:47.878Z,5.50
2022-08-21T11:39:47.933Z,5.50
2022-08-21T11:40:47.852Z,7.70
2022-08-21T11:41:47.856Z,6.40
2022-08-21T11:42:47.843Z,5.30
2022-08-21T11:43:47.814Z,4.70
2022-08-21T11:44:47.807Z,4.30
2022-08-21T11:45:47.814Z,5.10
2022-08-21T11:46:47.851Z,6.20
2022-08-21T11:47:52.054Z,3.70
2022-08-21T11:48:48.791Z,6.70
2022-08-21T11:49:47.753Z,6.30
2022-08-21T11:50:47.772Z,5.80
2022-08-21T11:51:47.737Z,5.70
2022-08-21T11:52:47.734Z,7.50
2022-08-21T11:53:52.090Z,12.20
2022-08-21T11:54:49.707Z,5.50
2022-08-21T11:55:47.743Z,3.80
2022-08-21T11:56:47.704Z,4.90
2022-08-21T11:57:47.679Z,4.70
2022-08-21T11:58:47.670Z,6.90
2022-08-21T11:59:47.666Z,6.90
2022-08-21T12:00:47.679Z,4.00
2022-08-21T12:01:47.671Z,6.20
2022-08-21T12:02:47.624Z,4.80
2022-08-21T12:03:47.624Z,4.80
2022-08-21T12:04:48.641Z,4.50
2022-08-21T12:05:47.614Z,3.90
2022-08-21T12:06:47.607Z,6.40
2022-08-21T12:07:47.582Z,3.70
2022-08-21T12:08:47.571Z,4.20
2022-08-21T12:09:47.584Z,4.40
2022-08-21T12:10:47.556Z,6.10
2022-08-21T12:11:47.538Z,5.70
2022-08-21T12:12:47.556Z,3.90
2022-08-21T12:13:47.523Z,5.00
2022-08-21T12:14:47.508Z,7.40
2022-08-21T12:15:47.502Z,4.10
2022-08-21T12:16:47.499Z,6.00
2022-08-21T12:17:47.516Z,6.30
2022-08-21T12:18:47.472Z,3.70
2022-08-21T12:19:47.468Z,5.40
2022-08-21T12:20:50.378Z,3.90
2022-08-21T12:21:47.453Z,5.10
2022-08-21T12:22:47.472Z,4.50
2022-08-21T12:23:47.433Z,6.00
2022-08-21T12:24:47.414Z,4.80
2022-08-21T12:25:48.411Z,4.30
2022-08-21T12:26:47.418Z,4.00
2022-08-21T12:27:47.407Z,5.30
2022-08-21T12:28:47.404Z,4.40
2022-08-21T12:29:47.372Z,4.30
2022-08-21T12:30:47.363Z,4.90
2022-08-21T12:31:47.367Z,5.00
2022-08-21T12:32:47.637Z,6.60
2022-08-21T12:33:47.354Z,4.10
2022-08-21T12:34:47.339Z,4.20
2022-08-21T12:35:47.314Z,4.10
2022-08-21T12:36:47.304Z,4.70
2022-08-21T12:37:47.332Z,5.50
2022-08-21T12:38:47.314Z,5.20
2022-08-21T12:39:47.342Z,3.90
2022-08-21T12:40:47.292Z,5.80
2022-08-21T12:41:47.260Z,4.90
2022-08-21T12:42:58.041Z,4.00
2022-08-21T12:43:49.244Z,4.90
2022-08-21T12:44:47.230Z,3.40
2022-08-21T12:45:47.220Z,6.60
2022-08-21T12:46:47.211Z,7.40
2022-08-21T12:47:47.225Z,3.60
2022-08-21T12:48:47.190Z,3.70
2022-08-21T12:49:47.193Z,4.20
2022-08-21T12:50:49.105Z,4.60
2022-08-21T12:51:47.165Z,4.70
2022-08-21T12:52:47.205Z,4.40
2022-08-21T12:53:47.142Z,5.60
2022-08-21T12:54:47.125Z,5.20
2022-08-21T12:55:47.134Z,4.30
2022-08-21T12:56:47.116Z,7.20
2022-08-21T12:57:47.127Z,4.00
2022-08-21T12:58:47.092Z,3.90
2022-08-21T12:59:47.076Z,4.90
2022-08-21T13:00:47.075Z,4.80
2022-08-21T13:01:47.126Z,3.60
2022-08-21T13:03:18.977Z,3.80
2022-08-21T13:04:08.058Z,5.10
2022-08-21T13:04:47.034Z,5.10
2022-08-21T13:05:47.018Z,5.00
2022-08-21T13:06:47.013Z,4.90
2022-08-21T13:07:47.009Z,4.50
2022-08-21T13:08:47.431Z,3.90
2022-08-21T13:09:47.980Z,4.20